Time;durP1;ratioP1;P1;durP2;ratioP2;P2;SDS_P1;SDS_P2;PMS_P1;PMS_P2;Temp;Humidity;BMP_temperature;BMP_pressure;BME280_temperature;BME280_humidity;BME280_pressure;Samples;Min_cycle;Max_cycle;Signal;HPM_P1;HPM_P2
2022/07/19 00:01:33;;;;;;;;;6.50;6.50;;;;;31.63;19.54;101072.75;5061721;28;45244;-61
2022/07/19 00:03:59;;;;;;;;;4.00;3.25;;;;;31.61;19.15;101067.47;5060412;28;45450;-60
2022/07/19 00:06:24;;;;;;;;;4.25;4.25;;;;;31.58;19.50;101066.91;5061354;28;46280;-60
2022/07/19 00:08:50;;;;;;;;;6.00;4.75;;;;;31.52;19.62;101067.50;5061854;28;45293;-60
2022/07/19 00:11:15;;;;;;;;;5.00;4.00;;;;;31.48;19.20;101064.22;5061770;28;45142;-60
2022/07/19 00:13:40;;;;;;;;;6.50;6.25;;;;;31.49;19.59;101067.81;5062023;28;45277;-60
2022/07/19 00:16:06;;;;;;;;;9.00;8.50;;;;;31.44;19.96;101069.09;5043533;28;45235;-60
2022/07/19 00:18:31;;;;;;;;;6.75;6.00;;;;;31.41;19.71;101064.00;5043362;28;45268;-60
2022/07/19 00:20:57;;;;;;;;;6.25;5.75;;;;;31.38;19.84;101060.72;5061505;28;45463;-60
2022/07/19 00:23:22;;;;;;;;;6.25;5.25;;;;;31.34;19.81;101059.31;5061617;28;45451;-60
2022/07/19 00:25:47;;;;;;;;;7.00;6.00;;;;;31.34;19.56;101064.75;5042921;28;47129;-60
2022/07/19 00:28:13;;;;;;;;;4.25;4.00;;;;;31.29;20.14;101046.19;5061605;28;45350;-60
2022/07/19 00:30:38;;;;;;;;;4.00;4.00;;;;;31.26;19.70;101058.22;5061284;28;45428;-60
2022/07/19 00:33:08;;;;;;;;;5.25;5.25;;;;;31.22;19.97;101045.94;5061136;28;45455;-60
2022/07/19 00:35:37;;;;;;;;;4.50;4.50;;;;;31.17;19.50;101042.84;5061183;28;46133;-60
2022/07/19 00:38:07;;;;;;;;;6.25;5.00;;;;;31.16;20.09;101041.13;5061293;28;45373;-60
2022/07/19 00:40:33;;;;;;;;;4.50;4.50;;;;;31.13;19.79;101049.53;5061353;28;45350;-60
2022/07/19 00:42:58;;;;;;;;;4.75;4.75;;;;;31.11;20.08;101048.84;5042502;28;45554;-60
2022/07/19 00:45:23;;;;;;;;;4.25;4.25;;;;;31.07;19.70;101048.28;5061362;28;46021;-61
2022/07/19 00:47:49;;;;;;;;;6.25;6.25;;;;;31.04;19.89;101045.81;5060755;28;45255;-60
2022/07/19 00:50:14;;;;;;;;;4.00;4.00;;;;;30.96;19.99;101026.75;5043056;28;45298;-60
2022/07/19 00:52:41;;;;;;;;;4.75;4.75;;;;;30.97;20.13;101039.31;5060995;28;45545;-60
2022/07/19 00:55:09;;;;;;;;;6.00;6.00;;;;;30.93;20.37;101036.03;5043097;28;46099;-60
2022/07/19 00:57:38;;;;;;;;;5.25;5.25;;;;;30.93;19.88;101040.59;5060626;28;45262;-60
2022/07/19 01:00:05;;;;;;;;;6.50;5.00;;;;;30.87;20.32;101041.19;5042953;28;45194;-60
2022/07/19 01:02:31;;;;;;;;;9.00;5.50;;;;;30.82;20.58;101038.06;5060355;28;45163;-60
2022/07/19 01:04:57;;;;;;;;;4.75;4.75;;;;;30.80;20.27;101043.63;5058714;28;45391;-60
2022/07/19 01:07:22;;;;;;;;;6.50;6.50;;;;;30.76;20.35;101042.22;5060730;28;45369;-60
2022/07/19 01:09:48;;;;;;;;;7.00;6.75;;;;;30.72;20.56;101040.81;5061175;28;45342;-60
2022/07/19 01:12:14;;;;;;;;;5.75;5.75;;;;;30.67;20.61;101038.53;5042675;28;45416;-60
2022/07/19 01:14:39;;;;;;;;;8.25;5.00;;;;;30.64;20.35;101036.09;5060646;28;45428;-60
2022/07/19 01:17:05;;;;;;;;;5.75;5.75;;;;;30.61;20.64;101036.41;5060583;28;45487;-60
2022/07/19 01:19:30;;;;;;;;;7.00;5.50;;;;;30.57;20.77;101026.88;5042444;28;45397;-60
2022/07/19 01:21:56;;;;;;;;;4.50;4.25;;;;;30.51;20.59;101022.84;5042658;28;45846;-60
2022/07/19 01:24:21;;;;;;;;;5.50;5.50;;;;;30.50;20.65;101032.00;5059957;28;45446;-60
2022/07/19 01:26:47;;;;;;;;;7.50;4.75;;;;;30.47;20.63;101035.81;5060482;28;45367;-60
2022/07/19 01:29:16;;;;;;;;;6.25;5.00;;;;;30.43;20.64;101026.28;5060679;28;45258;-60
2022/07/19 01:31:41;;;;;;;;;4.75;4.00;;;;;30.40;20.62;101021.16;5042493;28;46045;-60
2022/07/19 01:34:07;;;;;;;;;4.75;4.25;;;;;30.37;20.44;101029.56;5060144;28;45391;-60
2022/07/19 01:36:32;;;;;;;;;4.75;4.50;;;;;30.34;20.68;101026.28;5041708;28;46074;-60
2022/07/19 01:38:58;;;;;;;;;6.00;5.25;;;;;30.30;20.72;101031.13;5060518;28;45284;-60
2022/07/19 01:41:23;;;;;;;;;4.25;4.00;;;;;30.27;20.64;101031.44;5060372;28;45383;-61
2022/07/19 01:43:48;;;;;;;;;5.75;4.00;;;;;30.22;20.62;101033.72;5060338;28;45307;-60
2022/07/19 01:46:14;;;;;;;;;6.25;6.00;;;;;30.20;20.98;101033.00;5041951;28;45346;-60
2022/07/19 01:48:39;;;;;;;;;5.75;4.50;;;;;30.16;21.02;101032.41;5060057;28;45408;-61
2022/07/19 01:51:05;;;;;;;;;6.75;4.25;;;;;30.14;20.88;101029.88;5060211;28;45463;-60
2022/07/19 01:53:30;;;;;;;;;5.50;5.25;;;;;30.12;20.93;101031.00;5022772;28;46221;-60
2022/07/19 01:55:55;;;;;;;;;5.25;5.25;;;;;30.05;20.52;101028.03;5052676;28;45658;-60
2022/07/19 01:58:21;;;;;;;;;5.75;5.75;;;;;30.02;21.13;101020.16;5059994;28;45464;-60
2022/07/19 02:00:46;;;;;;;;;3.75;3.75;;;;;30.01;21.10;101031.16;5059968;28;45588;-60
2022/07/19 02:03:12;;;;;;;;;5.25;4.00;;;;;29.96;21.17;101023.44;5058395;28;46132;-60
2022/07/19 02:05:37;;;;;;;;;5.00;5.00;;;;;29.94;21.19;101025.44;5059550;28;45258;-60
2022/07/19 02:08:03;;;;;;;;;4.75;4.75;;;;;29.91;20.90;101029.31;5059975;28;45401;-60
2022/07/19 02:10:29;;;;;;;;;4.50;4.00;;;;;29.88;21.34;101029.53;5059907;28;45568;-60
2022/07/19 02:12:55;;;;;;;;;4.00;4.00;;;;;29.84;21.24;101026.25;5041860;28;46465;-60
2022/07/19 02:15:20;;;;;;;;;4.25;4.25;;;;;29.82;21.07;101022.84;5059874;28;46505;-60
2022/07/19 02:17:45;;;;;;;;;6.00;5.00;;;;;29.80;21.04;101026.69;5041437;28;45412;-60
2022/07/19 02:20:12;;;;;;;;;6.25;5.50;;;;;29.77;21.17;101018.84;5047503;28;49946;-60
2022/07/19 02:22:38;;;;;;;;;2.50;2.50;;;;;29.73;21.38;101017.41;5039609;28;46247;-60
2022/07/19 02:25:03;;;;;;;;;6.75;6.00;;;;;29.70;21.25;101018.53;5039705;28;45282;-60
2022/07/19 02:27:29;;;;;;;;;6.00;6.00;;;;;29.67;21.45;101011.56;5039621;28;45469;-60
2022/07/19 02:29:54;;;;;;;;;5.25;5.25;;;;;29.64;21.32;101013.69;5039652;28;45504;-60
2022/07/19 02:32:19;;;;;;;;;6.00;6.00;;;;;29.61;21.34;101012.13;5039065;28;46021;-60
2022/07/19 02:34:45;;;;;;;;;5.75;4.50;;;;;29.58;21.40;101003.41;5039544;28;45305;-60
2022/07/19 02:37:10;;;;;;;;;5.25;5.25;;;;;29.56;21.34;101005.41;5039566;28;45383;-60
2022/07/19 02:39:35;;;;;;;;;5.25;4.00;;;;;29.53;21.16;101002.97;5021762;28;45302;-60
2022/07/19 02:42:01;;;;;;;;;5.50;5.50;;;;;29.50;21.33;101004.97;5039280;28;45416;-60
2022/07/19 02:44:26;;;;;;;;;6.75;6.75;;;;;29.46;21.32;101000.84;5039663;28;45291;-60
2022/07/19 02:46:51;;;;;;;;;7.50;6.75;;;;;29.46;21.68;100992.72;5039255;28;45505;-60
2022/07/19 02:49:17;;;;;;;;;7.00;7.00;;;;;29.43;21.45;100994.84;5041696;28;45327;-59
2022/07/19 02:51:43;;;;;;;;;6.25;5.00;;;;;29.42;21.67;100994.00;5024748;28;48186;-60
2022/07/19 02:54:08;;;;;;;;;5.25;5.25;;;;;29.40;21.74;101000.53;5042987;28;45280;-60
2022/07/19 02:56:36;;;;;;;;;7.25;6.75;;;;;29.37;21.70;100998.09;5042855;28;45306;-59
2022/07/19 02:59:02;;;;;;;;;5.50;5.50;;;;;29.34;21.51;100991.13;5042560;28;45458;-58
2022/07/19 03:01:29;;;;;;;;;7.50;6.00;;;;;29.29;21.75;100991.50;5042234;28;46418;-58
2022/07/19 03:03:54;;;;;;;;;6.50;5.75;;;;;29.28;21.95;100995.25;5051065;28;45389;-58
2022/07/19 03:06:19;;;;;;;;;6.75;5.00;;;;;29.26;22.17;100999.03;5024535;28;45282;-58
2022/07/19 03:08:45;;;;;;;;;5.25;5.25;;;;;29.22;22.20;100995.75;5042780;28;45310;-58
2022/07/19 03:11:11;;;;;;;;;5.00;5.00;;;;;29.22;21.81;100992.19;5042331;28;46246;-59
2022/07/19 03:13:36;;;;;;;;;5.25;5.25;;;;;29.19;21.92;101001.44;5042558;28;45388;-58
2022/07/19 03:16:02;;;;;;;;;6.00;4.75;;;;;29.15;21.93;100998.13;5042524;28;45329;-58
2022/07/19 03:18:27;;;;;;;;;6.75;5.75;;;;;29.15;22.28;101000.00;5042240;28;45295;-58
2022/07/19 03:20:54;;;;;;;;;6.25;6.25;;;;;29.13;21.93;100991.16;5042124;28;46027;-58
2022/07/19 03:23:20;;;;;;;;;8.00;8.00;;;;;29.11;21.89;100996.72;5024504;28;45279;-58
2022/07/19 03:25:45;;;;;;;;;9.50;6.75;;;;;29.09;21.88;101001.38;5042332;28;45233;-58
2022/07/19 03:28:10;;;;;;;;;4.25;4.25;;;;;29.07;22.02;100997.97;5024328;28;45601;-58
2022/07/19 03:30:35;;;;;;;;;7.25;7.25;;;;;29.07;21.88;100992.56;5042009;28;45166;-58
2022/07/19 03:33:01;;;;;;;;;4.75;4.75;;;;;29.03;22.04;100988.41;5041928;28;45222;-58
2022/07/19 03:35:26;;;;;;;;;4.25;4.25;;;;;29.03;22.12;100991.09;5024400;28;45235;-58
2022/07/19 03:37:51;;;;;;;;;8.50;6.75;;;;;28.99;22.26;100984.28;5042460;28;45199;-58
2022/07/19 03:40:17;;;;;;;;;8.25;7.00;;;;;28.99;22.17;100995.97;5024154;28;47305;-58
2022/07/19 03:42:42;;;;;;;;;6.00;5.75;;;;;28.98;21.84;100987.97;5035055;28;45328;-58
2022/07/19 03:45:08;;;;;;;;;7.00;6.00;;;;;28.95;22.29;100988.25;5040835;28;45402;-58
2022/07/19 03:47:34;;;;;;;;;9.75;9.75;;;;;28.94;22.68;100994.66;5034844;28;45305;-58
2022/07/19 03:49:59;;;;;;;;;7.50;7.00;;;;;28.92;22.07;100993.91;5062050;28;45905;-58
2022/07/19 03:52:25;;;;;;;;;8.50;8.00;;;;;28.89;22.55;100989.63;5061989;28;45309;-58
2022/07/19 03:54:50;;;;;;;;;7.00;6.75;;;;;28.84;22.35;100989.19;5062052;28;45399;-58
2022/07/19 03:57:16;;;;;;;;;7.25;7.00;;;;;28.83;22.45;100984.75;5061888;28;45616;-58
2022/07/19 03:59:42;;;;;;;;;4.25;4.25;;;;;28.80;22.24;100985.88;5041263;28;45340;-59
2022/07/19 04:02:07;;;;;;;;;9.00;8.00;;;;;28.78;22.23;100992.44;5040168;28;45475;-59
2022/07/19 04:04:33;;;;;;;;;8.50;8.00;;;;;28.74;22.57;100993.69;5040245;28;45253;-59
2022/07/19 04:06:58;;;;;;;;;9.75;8.50;;;;;28.72;22.59;100998.38;5040348;28;45415;-59
2022/07/19 04:09:23;;;;;;;;;7.50;7.50;;;;;28.70;22.49;100993.09;5041346;28;50707;-59
2022/07/19 04:11:49;;;;;;;;;8.00;7.00;;;;;28.67;22.58;101005.03;5041713;28;45246;-59
2022/07/19 04:14:14;;;;;;;;;7.75;7.00;;;;;28.66;22.59;100997.88;5040360;28;45264;-59
2022/07/19 04:16:40;;;;;;;;;8.75;6.75;;;;;28.56;22.53;100979.91;5041480;28;45536;-59
2022/07/19 04:19:05;;;;;;;;;8.25;8.25;;;;;28.60;22.71;100989.47;5041095;28;45316;-59
2022/07/19 04:21:30;;;;;;;;;8.75;6.75;;;;;28.60;22.94;100989.47;5040130;28;46240;-59
2022/07/19 04:23:56;;;;;;;;;8.00;8.00;;;;;28.58;22.91;100991.44;5040424;28;45701;-59
2022/07/19 04:26:21;;;;;;;;;9.50;8.00;;;;;28.53;23.33;100981.88;5040279;28;45382;-59
2022/07/19 04:28:46;;;;;;;;;8.00;6.50;;;;;28.52;23.20;100984.72;5041146;28;45335;-60
2022/07/19 04:31:14;;;;;;;;;9.00;6.50;;;;;28.51;22.83;100985.72;5040026;28;45237;-59
2022/07/19 04:33:40;;;;;;;;;9.75;9.50;;;;;28.49;22.94;100987.69;5041079;28;45502;-60
2022/07/19 04:36:05;;;;;;;;;8.00;8.00;;;;;28.47;22.61;100979.72;5041300;28;45249;-59
2022/07/19 04:38:31;;;;;;;;;10.25;9.00;;;;;28.46;23.20;100983.41;5040953;28;46099;-60
2022/07/19 04:40:56;;;;;;;;;4.50;4.50;;;;;28.44;22.74;100988.09;5039870;28;45328;-60
2022/07/19 04:43:21;;;;;;;;;12.50;9.50;;;;;28.41;22.80;100977.53;5041039;28;45319;-60
2022/07/19 04:45:47;;;;;;;;;10.50;9.25;;;;;28.42;23.10;100987.38;5039714;28;45878;-60
2022/07/19 04:48:13;;;;;;;;;14.50;11.00;;;;;28.42;22.77;100989.22;5040629;28;45348;-60
2022/07/19 04:50:39;;;;;;;;;10.50;9.50;;;;;28.39;22.77;100984.94;5041223;28;45229;-60
2022/07/19 04:53:04;;;;;;;;;15.75;10.25;;;;;28.39;22.96;100993.03;5039619;28;45383;-60
2022/07/19 04:55:30;;;;;;;;;11.50;9.75;;;;;28.39;22.87;100987.63;5041009;28;45344;-60
2022/07/19 04:57:55;;;;;;;;;10.75;9.00;;;;;28.38;22.83;100985.94;5039195;28;46230;-60
2022/07/19 05:00:21;;;;;;;;;11.25;10.50;;;;;28.38;22.91;100985.94;5041072;28;45269;-60
2022/07/19 05:02:46;;;;;;;;;11.25;10.75;;;;;28.34;23.25;100976.34;5039804;28;45494;-60
2022/07/19 05:05:14;;;;;;;;;11.50;9.25;;;;;28.36;22.94;100974.38;5040298;28;45351;-59
2022/07/19 05:07:39;;;;;;;;;11.75;11.00;;;;;28.35;23.15;100978.94;5040345;28;46019;-59
2022/07/19 05:10:05;;;;;;;;;11.75;9.75;;;;;28.35;23.29;100969.97;5040320;28;45316;-59
2022/07/19 05:12:31;;;;;;;;;13.00;10.25;;;;;28.32;23.05;100964.84;5039984;28;45294;-59
2022/07/19 05:14:58;;;;;;;;;9.75;8.75;;;;;28.34;23.38;100969.13;5040735;28;45426;-59
2022/07/19 05:17:23;;;;;;;;;11.50;10.50;;;;;28.32;23.23;100971.06;5038733;28;47432;-59
2022/07/19 05:19:48;;;;;;;;;12.00;10.75;;;;;28.34;23.71;100973.66;5040583;28;45269;-58
2022/07/19 05:22:14;;;;;;;;;11.75;11.25;;;;;28.33;23.26;100975.50;5040541;28;45579;-58
2022/07/19 05:24:39;;;;;;;;;11.25;9.25;;;;;28.33;23.69;100971.97;5040514;28;45178;-58
2022/07/19 05:27:04;;;;;;;;;10.75;9.25;;;;;28.33;23.42;100977.34;5040153;28;45260;-58
2022/07/19 05:29:30;;;;;;;;;10.00;9.00;;;;;28.33;23.15;100980.06;5039157;28;45326;-58
2022/07/19 05:31:55;;;;;;;;;10.00;10.00;;;;;28.32;23.52;100981.03;5040199;28;45201;-58
2022/07/19 05:34:20;;;;;;;;;10.25;9.75;;;;;28.32;23.47;100979.19;5040418;28;45368;-58
2022/07/19 05:36:46;;;;;;;;;15.25;10.50;;;;;28.33;23.89;100971.97;5040077;28;46265;-58
2022/07/19 05:39:11;;;;;;;;;11.25;9.00;;;;;28.32;23.65;100975.63;5040438;28;45234;-58
2022/07/19 05:41:36;;;;;;;;;9.50;8.50;;;;;28.33;24.07;100970.09;5040477;28;45217;-58
2022/07/19 05:44:02;;;;;;;;;10.25;7.75;;;;;28.34;23.62;100970.94;5040570;28;45212;-58
2022/07/19 05:46:27;;;;;;;;;8.50;7.25;;;;;28.36;24.09;100979.78;5039840;28;46436;-57
2022/07/19 05:48:53;;;;;;;;;11.50;10.00;;;;;28.36;23.49;100975.25;5038634;28;45370;-58
2022/07/19 05:51:18;;;;;;;;;11.25;10.00;;;;;28.36;23.97;100979.78;5040160;28;45350;-58
2022/07/19 05:53:43;;;;;;;;;9.00;9.00;;;;;28.34;23.82;100971.81;5040411;28;45408;-58
2022/07/19 05:56:09;;;;;;;;;11.00;10.50;;;;;28.37;24.24;100976.09;5039885;28;46059;-58
2022/07/19 05:58:34;;;;;;;;;9.00;8.00;;;;;28.37;24.09;100966.13;5038503;28;45387;-58
2022/07/19 06:01:18;;;;;;;;;10.00;9.50;;;;;28.39;24.05;100971.44;5039749;28;45401;-58
2022/07/19 06:03:45;;;;;;;;;13.75;10.50;;;;;28.39;23.77;100974.13;5038544;28;45601;-58
2022/07/19 06:06:11;;;;;;;;;10.75;9.00;;;;;28.41;24.37;100971.28;5039524;28;46345;-59
2022/07/19 06:08:36;;;;;;;;;11.25;9.75;;;;;28.42;24.22;100964.91;5039908;28;45436;-58
2022/07/19 06:11:02;;;;;;;;;13.00;12.75;;;;;28.41;24.48;100963.19;5039539;28;47091;-58
2022/07/19 06:13:27;;;;;;;;;14.50;12.50;;;;;28.44;24.37;100960.19;5040081;28;45239;-59
2022/07/19 06:15:52;;;;;;;;;19.75;16.00;;;;;28.46;24.21;100961.78;5039416;28;46284;-59
2022/07/19 06:18:18;;;;;;;;;13.50;9.25;;;;;28.47;24.40;100962.66;5038458;28;45289;-59
2022/07/19 06:20:44;;;;;;;;;17.25;16.25;;;;;28.49;24.14;100953.41;5039674;28;45237;-59
2022/07/19 06:23:10;;;;;;;;;12.25;10.25;;;;;28.52;24.33;100949.59;5042021;28;45186;-59
2022/07/19 06:25:35;;;;;;;;;15.25;10.50;;;;;28.52;24.17;100945.03;5042929;28;45257;-59
2022/07/19 06:28:01;;;;;;;;;13.00;13.00;;;;;28.57;24.60;100938.38;5043269;28;45507;-59
2022/07/19 06:30:26;;;;;;;;;12.25;11.50;;;;;28.60;24.19;100938.09;5028358;28;45238;-59
2022/07/19 06:32:51;;;;;;;;;12.50;9.50;;;;;28.62;24.22;100947.78;5043041;28;45149;-59
2022/07/19 06:35:17;;;;;;;;;12.75;11.00;;;;;28.66;24.56;100940.28;5041662;28;46398;-59
2022/07/19 06:37:42;;;;;;;;;10.75;10.50;;;;;28.67;24.26;100942.88;5043430;28;45195;-59
2022/07/19 06:40:08;;;;;;;;;11.75;10.50;;;;;28.70;24.34;100928.22;5042975;28;45528;-59
2022/07/19 06:42:34;;;;;;;;;12.75;11.75;;;;;28.73;24.42;100929.78;5042995;28;45317;-59
2022/07/19 06:45:01;;;;;;;;;9.75;9.25;;;;;28.79;24.64;100940.94;5042916;28;45332;-59
2022/07/19 06:47:30;;;;;;;;;9.00;9.00;;;;;28.83;24.23;100930.69;5042552;28;45320;-59
2022/07/19 06:49:55;;;;;;;;;11.00;11.00;;;;;28.86;24.75;100920.47;5042886;28;45178;-58
2022/07/19 06:52:20;;;;;;;;;12.00;9.25;;;;;28.89;24.66;100913.06;5042802;28;45259;-58
2022/07/19 06:54:46;;;;;;;;;9.50;9.50;;;;;28.94;24.55;100919.75;5042576;28;45210;-59
2022/07/19 06:57:11;;;;;;;;;10.50;10.50;;;;;28.97;24.53;100916.81;5042829;28;45193;-60
2022/07/19 06:59:37;;;;;;;;;13.75;10.75;;;;;29.03;24.86;100920.78;5062062;28;45241;-59
2022/07/19 07:02:03;;;;;;;;;13.00;10.75;;;;;29.07;24.56;100914.13;5062479;28;45431;-59
2022/07/19 07:04:29;;;;;;;;;11.75;11.75;;;;;29.10;24.23;100913.84;5060388;28;46314;-59
2022/07/19 07:06:54;;;;;;;;;15.25;11.75;;;;;29.14;24.93;100909.84;5044658;28;45304;-60
2022/07/19 07:09:20;;;;;;;;;9.75;9.75;;;;;29.21;24.92;100922.81;5062671;28;45335;-59
2022/07/19 07:11:45;;;;;;;;;13.25;13.25;;;;;29.24;24.61;100915.28;5062656;28;45364;-60
2022/07/19 07:14:10;;;;;;;;;13.50;12.25;;;;;29.29;24.63;100920.31;5062338;28;51574;-59
2022/07/19 07:16:35;;;;;;;;;12.25;10.00;;;;;29.35;24.80;100922.47;5062560;28;45294;-59
2022/07/19 07:19:01;;;;;;;;;11.25;11.25;;;;;29.40;24.55;100922.91;5044212;28;45274;-59
2022/07/19 07:21:26;;;;;;;;;14.75;12.75;;;;;29.41;24.66;100911.09;5062628;28;45299;-59
2022/07/19 07:23:51;;;;;;;;;10.75;10.75;;;;;29.48;24.36;100912.25;5062246;28;45276;-60
2022/07/19 07:26:17;;;;;;;;;22.25;19.00;;;;;29.51;24.93;100909.25;5062536;28;45240;-59
2022/07/19 07:28:42;;;;;;;;;11.50;10.50;;;;;29.57;24.48;100906.97;5062469;28;45307;-60
2022/07/19 07:31:08;;;;;;;;;13.00;12.00;;;;;29.64;24.82;100911.66;5062559;28;45221;-60
2022/07/19 07:33:33;;;;;;;;;13.75;10.25;;;;;29.70;24.57;100910.25;5061095;28;45407;-60
2022/07/19 07:35:58;;;;;;;;;10.25;9.25;;;;;29.74;24.48;100908.94;5062494;28;45254;-59
2022/07/19 07:38:24;;;;;;;;;14.50;13.00;;;;;29.79;24.39;100903.97;5062342;28;45729;-60
2022/07/19 07:40:49;;;;;;;;;10.50;10.50;;;;;29.84;24.18;100907.09;5061922;28;51207;-60
2022/07/19 07:43:14;;;;;;;;;10.00;8.75;;;;;29.90;24.42;100911.13;5062197;28;46173;-60
2022/07/19 07:45:40;;;;;;;;;10.50;10.00;;;;;29.95;24.49;100914.25;5061948;28;50754;-60
2022/07/19 07:48:05;;;;;;;;;10.00;10.00;;;;;29.99;24.63;100901.28;5061883;28;45305;-60
2022/07/19 07:50:30;;;;;;;;;12.50;12.50;;;;;30.04;24.79;100901.69;5062037;28;45633;-59
2022/07/19 07:52:56;;;;;;;;;9.75;9.50;;;;;30.12;24.48;100901.78;5061980;28;46806;-59
2022/07/19 07:55:21;;;;;;;;;13.25;12.00;;;;;30.17;24.61;100893.25;5062103;28;45186;-60
2022/07/19 07:57:46;;;;;;;;;12.25;12.25;;;;;30.23;24.35;100895.38;5061966;28;45213;-60
2022/07/19 08:00:13;;;;;;;;;14.50;13.00;;;;;30.28;24.66;100889.53;5062055;28;45588;-60
2022/07/19 08:02:44;;;;;;;;;10.25;8.50;;;;;30.35;24.45;100879.78;5043563;28;46124;-59
2022/07/19 08:05:10;;;;;;;;;14.75;12.00;;;;;30.40;24.56;100885.63;5060776;28;45252;-60
2022/07/19 08:07:37;;;;;;;;;12.00;10.75;;;;;30.47;24.51;100877.75;5061694;28;45225;-60
2022/07/19 08:10:07;;;;;;;;;10.00;10.00;;;;;30.55;24.51;100880.59;5061861;28;45411;-59
2022/07/19 08:12:33;;;;;;;;;17.50;14.00;;;;;30.60;24.73;100867.47;5061339;28;45470;-60
2022/07/19 08:14:58;;;;;;;;;13.75;12.00;;;;;30.68;24.51;100871.25;5061803;28;45305;-60
2022/07/19 08:17:24;;;;;;;;;11.25;10.75;;;;;30.74;24.39;100870.66;5061432;28;45268;-60
2022/07/19 08:19:49;;;;;;;;;15.00;13.00;;;;;30.79;24.41;100863.78;5061869;28;45368;-59
2022/07/19 08:22:15;;;;;;;;;14.25;13.25;;;;;30.85;24.63;100856.06;5061484;28;46044;-59
2022/07/19 08:24:41;;;;;;;;;9.50;8.25;;;;;30.93;24.40;100858.84;5061770;28;45364;-59
2022/07/19 08:27:06;;;;;;;;;13.75;12.00;;;;;31.01;24.10;100856.22;5061459;28;45795;-59
2022/07/19 08:29:32;;;;;;;;;13.00;12.50;;;;;31.07;24.15;100860.19;5061633;28;45403;-59
2022/07/19 08:31:57;;;;;;;;;13.50;12.50;;;;;31.13;23.83;100854.16;5060925;28;45266;-59
2022/07/19 08:34:22;;;;;;;;;13.00;11.75;;;;;31.21;23.87;100854.25;5061549;28;45368;-59
2022/07/19 08:36:48;;;;;;;;;12.50;11.50;;;;;31.30;23.85;100854.34;5061389;28;45309;-59
2022/07/19 08:39:13;;;;;;;;;16.50;13.75;;;;;31.36;23.79;100849.16;5061470;28;45339;-59
2022/07/19 08:41:38;;;;;;;;;14.50;12.75;;;;;31.43;23.73;100846.66;5061100;28;45996;-58
2022/07/19 08:44:04;;;;;;;;;13.75;11.50;;;;;31.50;24.38;100853.19;5061303;28;45424;-59
2022/07/19 08:46:29;;;;;;;;;10.50;10.00;;;;;31.58;23.89;100850.50;5060971;28;45315;-59
2022/07/19 08:48:55;;;;;;;;;11.00;10.25;;;;;31.67;23.36;100854.19;5042927;28;45450;-58
2022/07/19 08:51:21;;;;;;;;;10.75;8.25;;;;;31.72;23.64;100843.72;5061090;28;45295;-59
2022/07/19 08:53:49;;;;;;;;;10.50;9.50;;;;;31.81;24.07;100838.34;5043033;28;45369;-59
2022/07/19 08:58:59;;;;;;;;;11.50;10.00;;;;;31.99;23.71;100830.13;5060895;28;45469;-59
2022/07/19 09:01:24;;;;;;;;;11.75;10.75;;;;;32.08;23.09;100840.06;5060509;28;45183;-59
2022/07/19 09:04:07;;;;;;;;;12.50;12.00;;;;;32.16;22.84;100834.66;5059515;28;45253;-59
2022/07/19 09:06:40;;;;;;;;;9.75;9.75;;;;;32.27;23.36;100830.84;5047584;28;45166;-59
2022/07/19 09:09:06;;;;;;;;;9.75;9.75;;;;;32.34;23.16;100831.91;5060626;28;45544;-59
2022/07/19 09:11:33;;;;;;;;;11.25;9.50;;;;;32.41;23.08;100824.81;5060160;28;45455;-59
2022/07/19 09:14:07;;;;;;;;;12.75;10.00;;;;;32.51;22.83;100834.69;5059899;28;45257;-59
2022/07/19 09:16:53;;;;;;;;;9.00;9.00;;;;;32.61;23.12;100824.53;5042659;28;45265;-58
2022/07/19 09:19:18;;;;;;;;;12.25;10.50;;;;;32.68;22.98;100822.84;5060493;28;45241;-59
2022/07/19 09:22:14;;;;;;;;;12.00;10.25;;;;;32.77;22.64;100815.59;5060539;28;45309;-59
2022/07/19 09:24:44;;;;;;;;;13.00;11.25;;;;;32.86;22.79;100821.94;5059949;28;45206;-58
2022/07/19 09:27:13;;;;;;;;;11.25;11.25;;;;;32.95;22.63;100815.47;5060461;28;45345;-58
2022/07/19 09:29:44;;;;;;;;;9.50;9.50;;;;;33.03;23.00;100812.78;5060755;28;45237;-58
2022/07/19 09:32:18;;;;;;;;;10.00;9.00;;;;;33.14;23.00;100810.75;5042562;28;45469;-59
2022/07/19 09:34:54;;;;;;;;;9.00;8.50;;;;;33.24;22.25;100805.97;5060339;28;45355;-58
2022/07/19 09:37:21;;;;;;;;;7.25;7.25;;;;;33.34;22.44;100801.25;5060647;28;45383;-59
2022/07/19 09:39:52;;;;;;;;;9.50;9.50;;;;;33.43;22.62;100795.81;5059788;28;45308;-58
2022/07/19 09:42:33;;;;;;;;;9.25;9.25;;;;;33.53;22.12;100791.03;5060098;28;46185;-58
2022/07/19 09:45:06;;;;;;;;;8.25;8.25;;;;;33.64;21.69;100792.56;5060210;28;45463;-58
2022/07/19 09:47:35;;;;;;;;;8.75;8.50;;;;;33.76;22.12;100793.03;5059950;28;45308;-59
2022/07/19 09:50:04;;;;;;;;;12.25;9.00;;;;;33.86;21.90;100788.28;5059944;28;45475;-59
2022/07/19 09:52:29;;;;;;;;;9.75;9.25;;;;;33.97;21.38;100782.47;5060030;28;46935;-59
2022/07/19 09:54:55;;;;;;;;;9.25;8.75;;;;;34.07;21.42;100781.44;5059914;28;45458;-59
2022/07/19 09:57:23;;;;;;;;;6.50;6.50;;;;;34.19;21.26;100780.03;5059666;28;45331;-59
2022/07/19 09:59:53;;;;;;;;;7.25;7.25;;;;;34.31;21.48;100778.59;5041976;28;45598;-59
2022/07/19 10:02:22;;;;;;;;;9.25;9.25;;;;;34.42;21.04;100765.66;5058729;28;46266;-59
2022/07/19 10:04:48;;;;;;;;;9.00;7.75;;;;;34.54;21.17;100761.47;5057811;28;45389;-59
2022/07/19 10:07:16;;;;;;;;;6.50;6.50;;;;;34.66;21.14;100760.03;5060214;28;45314;-59
2022/07/19 10:09:43;;;;;;;;;11.00;9.25;;;;;34.78;20.82;100751.44;5059747;28;45313;-59
2022/07/19 10:12:09;;;;;;;;;11.00;9.25;;;;;34.91;20.67;100754.44;5059701;28;46268;-59
2022/07/19 10:14:36;;;;;;;;;10.75;9.25;;;;;35.03;20.78;100752.13;5059711;28;45349;-59
2022/07/19 10:17:30;;;;;;;;;8.75;8.25;;;;;35.18;20.50;100746.72;5059674;28;45395;-59
2022/07/19 10:19:56;;;;;;;;;7.75;7.75;;;;;35.29;20.46;100740.81;5059916;28;45542;-59
2022/07/19 10:22:24;;;;;;;;;7.75;7.75;;;;;35.42;20.20;100744.84;5059747;28;46475;-60
2022/07/19 10:24:52;;;;;;;;;6.00;6.00;;;;;35.56;19.85;100733.09;5059774;28;45415;-61
2022/07/19 10:27:43;;;;;;;;;8.25;7.50;;;;;35.68;19.71;100744.41;5059665;28;45444;-61
2022/07/19 10:30:11;;;;;;;;;7.25;6.50;;;;;35.83;19.47;100725.28;5059647;28;45395;-61
2022/07/19 10:32:38;;;;;;;;;9.00;8.50;;;;;35.99;19.61;100728.88;5041207;28;47305;-61
2022/07/19 10:35:22;;;;;;;;;8.00;7.75;;;;;36.14;19.53;100718.78;5059514;28;45347;-61
2022/07/19 10:37:53;;;;;;;;;10.00;10.00;;;;;36.30;19.72;100720.44;5041783;28;45583;-61
2022/07/19 10:40:36;;;;;;;;;7.75;7.75;;;;;36.48;19.65;100713.72;5059394;28;45252;-61
2022/07/19 10:43:11;;;;;;;;;6.25;4.25;;;;;36.63;19.33;100722.75;5059492;28;46281;-61
2022/07/19 10:45:42;;;;;;;;;9.25;7.50;;;;;36.83;19.50;100719.34;5059438;28;45273;-61
2022/07/19 10:48:13;;;;;;;;;11.00;9.50;;;;;37.08;19.59;100706.13;5059186;28;45586;-60
2022/07/19 10:50:47;;;;;;;;;11.00;9.00;;;;;37.39;18.93;100704.91;5059413;28;45410;-61
2022/07/19 10:53:54;;;;;;;;;8.75;7.50;;;;;37.94;19.79;100706.94;5059317;28;46367;-61
2022/07/19 10:56:24;;;;;;;;;9.50;9.50;;;;;38.50;19.82;100706.75;5059332;28;45201;-61
2022/07/19 10:58:54;;;;;;;;;7.50;7.25;;;;;39.10;19.31;100696.91;5059165;28;45250;-61
2022/07/19 11:01:21;;;;;;;;;9.75;8.00;;;;;39.74;19.39;100700.88;5059055;28;45494;-62
2022/07/19 11:03:48;;;;;;;;;8.50;7.50;;;;;40.41;19.43;100699.75;5057678;28;46271;-60
2022/07/19 11:06:25;;;;;;;;;7.75;6.50;;;;;41.14;19.32;100703.09;5058609;28;45398;-62
2022/07/19 11:08:58;;;;;;;;;6.50;6.50;;;;;41.86;19.29;100694.31;5041591;28;45478;-62
2022/07/19 11:11:26;;;;;;;;;8.00;8.00;;;;;42.55;18.96;100692.09;5062416;28;45542;-61
2022/07/19 11:13:53;;;;;;;;;10.00;9.25;;;;;43.25;18.58;100692.47;5062640;28;47300;-60
2022/07/19 11:16:19;;;;;;;;;6.00;6.00;;;;;43.96;18.52;100691.56;5031057;28;45346;-61
2022/07/19 11:18:45;;;;;;;;;10.75;10.00;;;;;44.68;18.30;100694.84;5040927;28;45259;-61
2022/07/19 11:21:15;;;;;;;;;8.75;7.75;;;;;45.36;17.85;100692.91;5042405;28;45176;-61